Time,TemperatureF,DewpointF,PressureIn,WindDirection,WindDirectionDegrees,WindSpeedMPH,WindSpeedGustMPH,Humidity,HourlyPrecipIn,Conditions,Clouds,dailyrainin,SolarRadiationWatts/m^2,SoftwareType,DateUTC
2013-06-11 00:03:00,68.0,59.0,-100.00,NW,316,0.0,4.0,73,0.00,,,0.00,0.000000,,2013-06-11 10:03:00,
2013-06-11 00:11:00,67.0,60.0,-100.00,NNW,347,0.0,4.0,77,0.00,,,0.00,0.000000,,2013-06-11 10:11:00,
2013-06-11 00:33:00,67.0,60.0,-100.00,NNW,347,0.0,4.0,77,0.00,,,0.00,0.000000,,2013-06-11 10:33:00,
2013-06-11 00:43:00,67.0,60.0,-100.00,NNW,347,0.0,4.0,77,0.00,,,0.00,0.000000,,2013-06-11 10:43:00,
2013-06-11 00:52:00,67.0,60.0,-100.00,NNW,347,0.0,4.0,77,0.00,,,0.00,0.000000,,2013-06-11 10:52:00,
2013-06-11 01:02:00,67.0,60.0,-100.00,NNW,347,0.0,4.0,77,0.00,,,0.00,0.000000,,2013-06-11 11:02:00,
2013-06-11 01:11:00,68.0,58.0,-100.00,ESE,118,0.0,3.0,71,0.00,,,-99.99,0.000000,,2013-06-11 11:11:00,
2013-06-11 01:32:00,68.0,58.0,-100.00,ESE,118,0.0,3.0,71,0.00,,,-99.99,0.000000,,2013-06-11 11:32:00,
2013-06-11 01:42:00,68.0,58.0,-100.00,ESE,118,0.0,3.0,71,0.00,,,-99.99,0.000000,,2013-06-11 11:42:00,
2013-06-11 01:52:00,68.0,58.0,-100.00,ESE,118,0.0,3.0,71,0.00,,,-99.99,0.000000,,2013-06-11 11:52:00,
2013-06-11 02:02:00,68.0,58.0,-100.00,ESE,118,0.0,3.0,71,0.00,,,-99.99,0.000000,,2013-06-11 12:02:00,
2013-06-11 02:11:00,68.0,58.0,-100.00,East,93,0.0,6.0,71,0.00,,,-99.99,0.000000,,2013-06-11 12:11:00,
2013-06-11 02:32:00,68.0,58.0,-100.00,East,93,0.0,6.0,71,0.00,,,-99.99,0.000000,,2013-06-11 12:32:00,
2013-06-11 02:42:00,68.0,58.0,-100.00,East,93,0.0,6.0,71,0.00,,,-99.99,0.000000,,2013-06-11 12:42:00,
2013-06-11 02:52:00,68.0,58.0,-100.00,East,93,0.0,6.0,71,0.00,,,-99.99,0.000000,,2013-06-11 12:52:00,
2013-06-11 03:02:00,68.0,58.0,-100.00,East,93,0.0,6.0,71,0.00,,,-99.99,0.000000,,2013-06-11 13:02:00,
2013-06-11 03:11:00,69.0,63.0,-100.00,NNE,25,0.0,3.0,82,0.00,,,-99.99,0.000000,,2013-06-11 13:11:00,
2013-06-11 03:32:00,69.0,63.0,-100.00,NNE,25,0.0,3.0,82,0.00,,,-99.99,0.000000,,2013-06-11 13:32:00,
2013-06-11 03:42:00,69.0,63.0,-100.00,NNE,25,0.0,3.0,82,0.00,,,-99.99,0.000000,,2013-06-11 13:42:00,
2013-06-11 03:52:00,69.0,63.0,-100.00,NNE,25,0.0,3.0,82,0.00,,,-99.99,0.000000,,2013-06-11 13:52:00,
2013-06-11 04:02:00,69.0,63.0,-100.00,NNE,25,0.0,3.0,82,0.00,,,-99.99,0.000000,,2013-06-11 14:02:00,
2013-06-11 04:11:00,70.0,63.0,-100.00,SW,222,0.0,4.0,78,0.00,,,0.00,0.000000,,2013-06-11 14:11:00,
2013-06-11 04:32:00,70.0,63.0,-100.00,SW,222,0.0,4.0,78,0.00,,,0.00,0.000000,,2013-06-11 14:32:00,
2013-06-11 04:42:00,70.0,63.0,-100.00,SW,222,0.0,4.0,78,0.00,,,0.00,0.000000,,2013-06-11 14:42:00,
2013-06-11 04:53:00,70.0,63.0,-100.00,SW,222,0.0,4.0,78,0.00,,,0.00,0.000000,,2013-06-11 14:53:00,
2013-06-11 05:02:00,70.0,63.0,-100.00,SW,222,0.0,4.0,78,0.00,,,0.00,0.000000,,2013-06-11 15:02:00,
2013-06-11 05:11:00,69.0,64.0,-100.00,East,90,0.0,3.0,84,0.00,,,-99.99,0.000000,,2013-06-11 15:11:00,
2013-06-11 05:33:00,69.0,64.0,-100.00,East,90,0.0,3.0,84,0.00,,,-99.99,0.000000,,2013-06-11 15:33:00,
2013-06-11 05:43:00,69.0,64.0,-100.00,East,90,0.0,3.0,84,0.00,,,-99.99,0.000000,,2013-06-11 15:43:00,
2013-06-11 05:53:00,69.0,64.0,-100.00,East,90,0.0,3.0,84,0.00,,,-99.99,0.000000,,2013-06-11 15:53:00,
2013-06-11 06:02:00,69.0,64.0,-100.00,East,90,0.0,3.0,84,0.00,,,-99.99,0.000000,,2013-06-11 16:02:00,
2013-06-11 06:11:00,70.0,60.0,-100.00,ESE,110,0.0,5.0,71,0.00,,,0.00,0.000000,,2013-06-11 16:11:00,
2013-06-11 06:33:00,70.0,60.0,-100.00,ESE,110,0.0,5.0,71,0.00,,,0.00,0.000000,,2013-06-11 16:33:00,
2013-06-11 06:42:00,70.0,60.0,-100.00,ESE,110,0.0,5.0,71,0.00,,,0.00,0.000000,,2013-06-11 16:42:00,
2013-06-11 06:52:00,70.0,60.0,-100.00,ESE,110,0.0,5.0,71,0.00,,,0.00,0.000000,,2013-06-11 16:52:00,
2013-06-11 07:02:00,70.0,60.0,-100.00,ESE,110,0.0,5.0,71,0.00,,,0.00,0.000000,,2013-06-11 17:02:00,
2013-06-11 07:11:00,72.0,65.0,-100.00,SSW,194,1.0,5.0,78,0.00,,,0.00,60.000000,,2013-06-11 17:11:00,
2013-06-11 07:32:00,72.0,65.0,-100.00,SSW,194,1.0,5.0,78,0.00,,,0.00,60.000000,,2013-06-11 17:32:00,
2013-06-11 07:43:00,72.0,65.0,-100.00,SSW,194,1.0,5.0,78,0.00,,,0.00,60.000000,,2013-06-11 17:43:00,
2013-06-11 07:52:00,72.0,65.0,-100.00,SSW,194,1.0,5.0,78,0.00,,,0.00,60.000000,,2013-06-11 17:52:00,
2013-06-11 08:02:00,72.0,65.0,-100.00,SSW,194,1.0,5.0,78,0.00,,,0.00,60.000000,,2013-06-11 18:02:00,
2013-06-11 08:11:00,72.0,64.0,-100.00,West,276,0.0,5.0,77,0.00,,,0.00,194.000000,,2013-06-11 18:11:00,
2013-06-11 08:33:00,72.0,64.0,-100.00,West,276,0.0,5.0,77,0.00,,,0.00,194.000000,,2013-06-11 18:33:00,
2013-06-11 08:43:00,72.0,64.0,-100.00,West,276,0.0,5.0,77,0.00,,,0.00,194.000000,,2013-06-11 18:43:00,
2013-06-11 08:52:00,72.0,64.0,-100.00,West,276,0.0,5.0,77,0.00,,,0.00,194.000000,,2013-06-11 18:52:00,
2013-06-11 09:02:00,72.0,64.0,-100.00,West,276,0.0,5.0,77,0.00,,,0.00,194.000000,,2013-06-11 19:02:00,
2013-06-11 09:11:00,71.0,65.0,-100.00,WSW,238,1.0,7.0,80,0.00,,,0.00,265.000000,,2013-06-11 19:11:00,
2013-06-11 09:33:00,71.0,65.0,-100.00,WSW,238,1.0,7.0,80,0.00,,,0.00,265.000000,,2013-06-11 19:33:00,
2013-06-11 09:42:00,71.0,65.0,-100.00,WSW,238,1.0,7.0,80,0.00,,,0.00,265.000000,,2013-06-11 19:42:00,
2013-06-11 09:52:00,71.0,65.0,-100.00,WSW,238,1.0,7.0,80,0.00,,,0.00,265.000000,,2013-06-11 19:52:00,
2013-06-11 10:02:00,71.0,65.0,-100.00,WSW,238,1.0,7.0,80,0.00,,,0.00,265.000000,,2013-06-11 20:02:00,
2013-06-11 10:11:00,72.0,65.0,-100.00,West,277,0.0,5.0,78,0.00,,,0.00,331.000000,,2013-06-11 20:11:00,
2013-06-11 10:32:00,72.0,65.0,-100.00,West,277,0.0,5.0,78,0.00,,,0.00,331.000000,,2013-06-11 20:32:00,
2013-06-11 10:42:00,72.0,65.0,-100.00,West,277,0.0,5.0,78,0.00,,,0.00,331.000000,,2013-06-11 20:42:00,
2013-06-11 10:52:00,72.0,65.0,-100.00,West,277,0.0,5.0,78,0.00,,,0.00,331.000000,,2013-06-11 20:52:00,
2013-06-11 11:02:00,72.0,65.0,-100.00,West,277,0.0,5.0,78,0.00,,,0.00,331.000000,,2013-06-11 21:02:00,
2013-06-11 11:11:00,76.0,65.0,-100.00,West,270,1.0,6.0,68,0.00,,,0.00,459.000000,,2013-06-11 21:11:00,
2013-06-11 11:33:00,76.0,65.0,-100.00,West,270,1.0,6.0,68,0.00,,,0.00,459.000000,,2013-06-11 21:33:00,
2013-06-11 11:42:00,76.0,65.0,-100.00,West,270,1.0,6.0,68,0.00,,,0.00,459.000000,,2013-06-11 21:42:00,
2013-06-11 11:53:00,76.0,65.0,-100.00,West,270,1.0,6.0,68,0.00,,,0.00,459.000000,,2013-06-11 21:53:00,
2013-06-11 12:03:00,76.0,65.0,-100.00,West,270,1.0,6.0,68,0.00,,,0.00,459.000000,,2013-06-11 22:03:00,
2013-06-11 12:11:00,76.0,62.0,-100.00,SE,141,2.0,7.0,63,0.00,,,0.00,613.000000,,2013-06-11 22:11:00,
2013-06-11 12:33:00,76.0,62.0,-100.00,SE,141,2.0,7.0,63,0.00,,,0.00,613.000000,,2013-06-11 22:33:00,
2013-06-11 12:42:00,76.0,62.0,-100.00,SE,141,2.0,7.0,63,0.00,,,0.00,613.000000,,2013-06-11 22:42:00,
2013-06-11 12:52:00,76.0,62.0,-100.00,SE,141,2.0,7.0,63,0.00,,,0.00,613.000000,,2013-06-11 22:52:00,
2013-06-11 13:02:00,76.0,62.0,-100.00,SE,141,2.0,7.0,63,0.00,,,0.00,613.000000,,2013-06-11 23:02:00,
2013-06-11 13:11:00,78.0,63.0,-100.00,SW,232,5.0,10.0,61,0.00,,,0.00,809.000000,,2013-06-11 23:11:00,
2013-06-11 13:32:00,78.0,63.0,-100.00,SW,232,5.0,10.0,61,0.00,,,0.00,809.000000,,2013-06-11 23:32:00,
2013-06-11 13:42:00,78.0,63.0,-100.00,SW,232,5.0,10.0,61,0.00,,,0.00,809.000000,,2013-06-11 23:42:00,
2013-06-11 13:52:00,78.0,63.0,-100.00,SW,232,5.0,10.0,61,0.00,,,0.00,809.000000,,2013-06-11 23:52:00,
2013-06-11 14:02:00,78.0,63.0,-100.00,SW,232,5.0,10.0,61,0.00,,,0.00,809.000000,,2013-06-12 00:02:00,
2013-06-11 15:11:00,83.0,66.0,-100.00,SSW,193,4.0,11.0,56,-99.99,,,0.00,887.000000,,2013-06-12 01:11:00,
2013-06-11 15:32:00,83.0,66.0,-100.00,SSW,193,4.0,11.0,56,-99.99,,,0.00,887.000000,,2013-06-12 01:32:00,
2013-06-11 15:42:00,83.0,66.0,-100.00,SSW,193,4.0,11.0,56,-99.99,,,0.00,887.000000,,2013-06-12 01:42:00,
2013-06-11 15:52:00,83.0,66.0,-100.00,SSW,193,4.0,11.0,56,-99.99,,,0.00,887.000000,,2013-06-12 01:52:00,
2013-06-11 16:02:00,83.0,66.0,-100.00,SSW,193,4.0,11.0,56,-99.99,,,0.00,887.000000,,2013-06-12 02:02:00,
2013-06-11 16:11:00,81.0,63.0,-100.00,East,94,2.0,8.0,55,0.00,,,0.00,667.000000,,2013-06-12 02:11:00,
2013-06-11 16:32:00,81.0,63.0,-100.00,East,94,2.0,8.0,55,0.00,,,0.00,667.000000,,2013-06-12 02:32:00,
2013-06-11 16:42:00,81.0,63.0,-100.00,East,94,2.0,8.0,55,0.00,,,0.00,667.000000,,2013-06-12 02:42:00,
2013-06-11 16:52:00,81.0,63.0,-100.00,East,94,2.0,8.0,55,0.00,,,0.00,667.000000,,2013-06-12 02:52:00,
2013-06-11 17:02:00,81.0,63.0,-100.00,East,94,2.0,8.0,55,0.00,,,0.00,667.000000,,2013-06-12 03:02:00,
2013-06-11 17:11:00,79.0,64.0,-100.00,South,191,6.0,13.0,61,0.00,,,0.00,547.000000,,2013-06-12 03:11:00,
2013-06-11 17:33:00,79.0,64.0,-100.00,South,191,6.0,13.0,61,0.00,,,0.00,547.000000,,2013-06-12 03:33:00,
2013-06-11 17:43:00,79.0,64.0,-100.00,South,191,6.0,13.0,61,0.00,,,0.00,547.000000,,2013-06-12 03:43:00,
2013-06-11 17:53:00,79.0,64.0,-100.00,South,191,6.0,13.0,61,0.00,,,0.00,547.000000,,2013-06-12 03:53:00,
2013-06-11 18:02:00,79.0,64.0,-100.00,South,191,6.0,13.0,61,0.00,,,0.00,547.000000,,2013-06-12 04:02:00,
2013-06-11 18:11:00,73.0,64.0,-100.00,South,185,2.0,10.0,73,0.00,,,0.00,141.000000,,2013-06-12 04:11:00,
2013-06-11 18:34:00,73.0,64.0,-100.00,South,185,2.0,10.0,73,0.00,,,0.00,141.000000,,2013-06-12 04:34:00,
2013-06-11 18:42:00,73.0,64.0,-100.00,South,185,2.0,10.0,73,0.00,,,0.00,141.000000,,2013-06-12 04:42:00,
2013-06-11 18:52:00,73.0,64.0,-100.00,South,185,2.0,10.0,73,0.00,,,0.00,141.000000,,2013-06-12 04:52:00,
2013-06-11 19:02:00,73.0,64.0,-100.00,South,185,2.0,10.0,73,0.00,,,0.00,141.000000,,2013-06-12 05:02:00,
2013-06-11 19:11:00,72.0,66.0,-100.00,SW,229,0.0,6.0,82,0.00,,,0.00,27.000000,,2013-06-12 05:11:00,
2013-06-11 19:32:00,72.0,66.0,-100.00,SW,229,0.0,6.0,82,0.00,,,0.00,27.000000,,2013-06-12 05:32:00,
2013-06-11 19:42:00,72.0,66.0,-100.00,SW,229,0.0,6.0,82,0.00,,,0.00,27.000000,,2013-06-12 05:42:00,
2013-06-11 19:52:00,72.0,66.0,-100.00,SW,229,0.0,6.0,82,0.00,,,0.00,27.000000,,2013-06-12 05:52:00,
2013-06-11 20:02:00,72.0,66.0,-100.00,SW,229,0.0,6.0,82,0.00,,,0.00,27.000000,,2013-06-12 06:02:00,
2013-06-11 20:11:00,69.0,65.0,-100.00,NW,310,0.0,3.0,86,0.00,,,0.00,0.000000,,2013-06-12 06:11:00,
2013-06-11 20:32:00,69.0,65.0,-100.00,NW,310,0.0,3.0,86,0.00,,,0.00,0.000000,,2013-06-12 06:32:00,
2013-06-11 20:42:00,69.0,65.0,-100.00,NW,310,0.0,3.0,86,0.00,,,0.00,0.000000,,2013-06-12 06:42:00,
2013-06-11 20:52:00,69.0,65.0,-100.00,NW,310,0.0,3.0,86,0.00,,,0.00,0.000000,,2013-06-12 06:52:00,
2013-06-11 21:02:00,69.0,65.0,-100.00,NW,310,0.0,3.0,86,0.00,,,0.00,0.000000,,2013-06-12 07:02:00,
2013-06-11 21:11:00,67.0,61.0,-100.00,NNE,19,0.0,0.0,80,0.00,,,0.00,0.000000,,2013-06-12 07:11:00,
2013-06-11 21:33:00,67.0,61.0,-100.00,NNE,19,0.0,0.0,80,0.00,,,0.00,0.000000,,2013-06-12 07:33:00,
2013-06-11 21:43:00,67.0,61.0,-100.00,NNE,19,0.0,0.0,80,0.00,,,0.00,0.000000,,2013-06-12 07:43:00,
2013-06-11 21:53:00,67.0,61.0,-100.00,NNE,19,0.0,0.0,80,0.00,,,0.00,0.000000,,2013-06-12 07:53:00,
2013-06-11 22:02:00,67.0,61.0,-100.00,NNE,19,0.0,0.0,80,0.00,,,0.00,0.000000,,2013-06-12 08:02:00,
2013-06-11 22:11:00,66.0,63.0,-100.00,SE,145,0.0,2.0,89,0.00,,,0.00,0.000000,,2013-06-12 08:11:00,
2013-06-11 22:43:00,66.0,63.0,-100.00,SE,145,0.0,2.0,89,0.00,,,0.00,0.000000,,2013-06-12 08:43:00,
2013-06-11 22:53:00,66.0,63.0,-100.00,SE,145,0.0,2.0,89,0.00,,,0.00,0.000000,,2013-06-12 08:53:00,
2013-06-11 23:01:00,66.0,63.0,-100.00,SE,145,0.0,2.0,89,0.00,,,0.00,0.000000,,2013-06-12 09:01:00,
2013-06-11 23:11:00,69.0,59.0,-100.00,East,100,1.0,6.0,70,0.00,,,0.00,0.000000,,2013-06-12 09:11:00,
2013-06-11 23:33:00,69.0,59.0,-100.00,East,100,1.0,6.0,70,0.00,,,0.00,0.000000,,2013-06-12 09:33:00,
2013-06-11 23:43:00,69.0,59.0,-100.00,East,100,1.0,6.0,70,0.00,,,0.00,0.000000,,2013-06-12 09:43:00,
2013-06-11 23:53:00,69.0,59.0,-100.00,East,100,1.0,6.0,70,0.00,,,0.00,0.000000,,2013-06-12 09:53:00,